Time;durP1;ratioP1;P1;durP2;ratioP2;P2;SDS_P1;SDS_P2;PMS_P1;PMS_P2;Temp;Humidity;BMP_temperature;BMP_pressure;BME280_temperature;BME280_humidity;BME280_pressure;Samples;Min_cycle;Max_cycle;Signal;HPM_P1;HPM_P2
2024/01/24 00:02:03;;;;;;;1.03;0.90;;;10.60;49.20;;;;;;20763;6726;275839;-78
2024/01/24 00:04:39;;;;;;;1.30;0.80;;;10.60;49.20;;;;;;20637;6711;336284;-78
2024/01/24 00:07:14;;;;;;;3.28;1.12;;;10.70;48.80;;;;;;20758;6726;275861;-77
2024/01/24 00:09:50;;;;;;;2.57;1.10;;;10.80;48.40;;;;;;20980;6726;120079;-78
2024/01/24 00:12:26;;;;;;;2.22;1.10;;;10.70;49.50;;;;;;20684;6741;337934;-78
2024/01/24 00:15:04;;;;;;;1.63;0.70;;;10.60;49.10;;;;;;20751;6741;117371;-78
2024/01/24 00:17:37;;;;;;;2.10;0.90;;;10.50;49.60;;;;;;20770;6726;283755;-78
2024/01/24 00:20:13;;;;;;;1.67;0.70;;;10.50;49.60;;;;;;20749;6726;276331;-78
2024/01/24 00:22:53;;;;;;;2.30;1.13;;;10.70;49.20;;;;;;20721;6726;277529;-77
2024/01/24 00:25:26;;;;;;;1.90;0.87;;;10.80;49.80;;;;;;21000;6718;116847;-77
2024/01/24 00:28:02;;;;;;;0.90;0.73;;;10.80;49.80;;;;;;21006;6718;116746;-77
2024/01/24 00:30:37;;;;;;;1.50;0.80;;;10.50;50.70;;;;;;20929;6736;119698;-77
2024/01/24 00:33:13;;;;;;;2.50;1.00;;;10.20;51.50;;;;;;20715;6741;337836;-78
2024/01/24 00:35:49;;;;;;;2.57;0.77;;;10.30;50.60;;;;;;20931;6740;116830;-78
2024/01/24 00:38:24;;;;;;;2.37;0.90;;;10.30;51.20;;;;;;20749;6726;305553;-77
2024/01/24 00:41:00;;;;;;;1.00;0.80;;;10.40;50.60;;;;;;20773;6725;308631;-77
2024/01/24 00:43:35;;;;;;;2.87;0.70;;;10.70;50.20;;;;;;20859;6740;123306;-77
2024/01/24 00:46:11;;;;;;;1.52;0.70;;;10.60;50.80;;;;;;20718;6740;306254;-78
2024/01/24 00:48:47;;;;;;;1.80;0.80;;;10.60;50.30;;;;;;20755;6725;304746;-78
2024/01/24 00:51:23;;;;;;;2.70;1.10;;;11.00;49.90;;;;;;20771;6725;276970;-77
2024/01/24 00:53:59;;;;;;;3.13;0.83;;;11.00;49.80;;;;;;20881;6725;117927;-77
2024/01/24 00:56:34;;;;;;;1.27;0.80;;;10.90;50.60;;;;;;20694;6741;305695;-77
2024/01/24 00:59:10;;;;;;;0.80;0.77;;;10.80;50.30;;;;;;20937;6740;116946;-79
2024/01/24 01:01:46;;;;;;;2.33;0.90;;;10.50;52.20;;;;;;20922;6741;116786;-77
2024/01/24 01:04:25;;;;;;;2.83;1.07;;;10.50;51.90;;;;;;20524;6754;307536;-78
2024/01/24 01:06:59;;;;;;;1.23;0.73;;;10.60;51.50;;;;;;20935;6738;116882;-78
2024/01/24 01:09:36;;;;;;;1.93;0.87;;;10.60;52.10;;;;;;20730;6738;276265;-77
2024/01/24 01:12:11;;;;;;;2.17;1.00;;;10.70;51.70;;;;;;20726;6738;306201;-78
2024/01/24 01:14:47;;;;;;;1.02;0.82;;;11.00;51.10;;;;;;20579;6738;334347;-78
2024/01/24 01:17:22;;;;;;;1.90;0.87;;;11.20;50.60;;;;;;20940;6738;117035;-77
2024/01/24 01:19:58;;;;;;;3.30;1.00;;;11.10;51.20;;;;;;20721;6738;305974;-77
2024/01/24 01:22:35;;;;;;;1.60;0.60;;;11.10;51.10;;;;;;20704;6739;277613;-78
2024/01/24 01:25:14;;;;;;;1.98;1.10;;;11.30;51.00;;;;;;20551;6792;307202;-78
2024/01/24 01:27:46;;;;;;;1.90;1.03;;;11.50;50.60;;;;;;20736;6734;304873;-78
2024/01/24 01:30:23;;;;;;;1.83;1.13;;;11.70;50.50;;;;;;20643;6755;276997;-77
2024/01/24 01:32:57;;;;;;;1.98;1.00;;;11.70;50.20;;;;;;20693;6740;335087;-78
2024/01/24 01:35:33;;;;;;;0.97;0.97;;;11.80;50.20;;;;;;20868;6755;116975;-78
2024/01/24 01:38:09;;;;;;;2.87;0.98;;;11.60;51.00;;;;;;20745;6744;334331;-77
2024/01/24 01:40:44;;;;;;;3.07;0.97;;;11.50;51.10;;;;;;20955;6740;121590;-78
2024/01/24 01:43:20;;;;;;;3.13;0.97;;;11.30;51.90;;;;;;20867;6755;118556;-78
2024/01/24 01:45:55;;;;;;;2.90;1.08;;;11.10;52.60;;;;;;20745;6740;315135;-77
2024/01/24 01:48:31;;;;;;;3.03;1.20;;;11.10;52.50;;;;;;20995;6725;120831;-77
2024/01/24 01:51:08;;;;;;;1.77;0.90;;;10.80;53.50;;;;;;21015;6725;116743;-78
2024/01/24 01:53:44;;;;;;;1.30;0.77;;;10.80;54.10;;;;;;20930;6725;117399;-78
2024/01/24 01:56:20;;;;;;;1.50;0.83;;;10.60;54.10;;;;;;20901;6740;120288;-78
2024/01/24 01:58:55;;;;;;;2.53;0.98;;;10.50;54.70;;;;;;20769;6726;304441;-78
2024/01/24 02:01:31;;;;;;;1.80;0.90;;;10.60;54.80;;;;;;20934;6740;116894;-78
2024/01/24 02:04:06;;;;;;;0.43;0.40;;;10.70;55.00;;;;;;20788;6744;117373;-77
2024/01/24 02:06:42;;;;;;;2.30;1.08;;;10.60;55.40;;;;;;20622;6758;337645;-78
2024/01/24 02:09:18;;;;;;;2.20;0.90;;;10.70;55.20;;;;;;20680;6755;277548;-78
2024/01/24 02:11:54;;;;;;;2.37;0.93;;;11.30;54.10;;;;;;20718;6740;307138;-78
2024/01/24 02:14:29;;;;;;;1.83;0.70;;;11.40;54.20;;;;;;20818;6739;119270;-78
2024/01/24 02:17:05;;;;;;;2.33;0.63;;;11.30;54.40;;;;;;20986;6725;118970;-78
2024/01/24 02:19:44;;;;;;;1.62;0.82;;;11.00;54.90;;;;;;20721;6740;313820;-78
2024/01/24 02:22:17;;;;;;;1.90;1.00;;;11.10;54.80;;;;;;20676;6754;276711;-78
2024/01/24 02:24:52;;;;;;;1.70;0.60;;;11.40;54.50;;;;;;20795;6726;118572;-78
2024/01/24 02:27:28;;;;;;;1.60;1.00;;;11.30;54.70;;;;;;20724;6740;276721;-78
2024/01/24 02:30:04;;;;;;;0.93;0.77;;;11.40;54.50;;;;;;20922;6745;116960;-78
2024/01/24 02:32:40;;;;;;;2.05;0.98;;;11.30;54.80;;;;;;20654;6753;307423;-78
2024/01/24 02:35:17;;;;;;;1.80;0.87;;;11.30;54.60;;;;;;20703;6744;306072;-77
2024/01/24 02:37:52;;;;;;;0.97;0.80;;;11.60;54.30;;;;;;20927;6744;117382;-78
2024/01/24 02:40:28;;;;;;;1.27;0.83;;;11.40;54.50;;;;;;20923;6744;118889;-78
2024/01/24 02:43:04;;;;;;;1.12;0.85;;;11.20;55.20;;;;;;20733;6729;322435;-78
2024/01/24 02:45:39;;;;;;;2.27;0.40;;;11.20;55.10;;;;;;20981;6729;116833;-77
2024/01/24 02:48:18;;;;;;;0.83;0.60;;;11.10;55.40;;;;;;20954;6740;117267;-78
2024/01/24 02:50:50;;;;;;;0.82;0.62;;;10.90;55.90;;;;;;20775;6726;302965;-77
2024/01/24 02:53:26;;;;;;;1.80;0.77;;;11.00;55.70;;;;;;20656;6740;307162;-77
2024/01/24 02:56:04;;;;;;;1.30;0.80;;;11.30;55.20;;;;;;20804;6711;306412;-77
2024/01/24 02:58:37;;;;;;;1.10;0.60;;;11.50;54.70;;;;;;20932;6731;117125;-78
2024/01/24 03:01:15;;;;;;;0.97;0.90;;;11.40;55.10;;;;;;20820;6739;67921;-77
2024/01/24 03:03:49;;;;;;;1.48;1.10;;;11.10;55.60;;;;;;20656;6744;307766;-74
2024/01/24 03:06:28;;;;;;;1.47;0.60;;;11.10;55.60;;;;;;20908;6738;118612;-78
2024/01/24 03:09:01;;;;;;;0.63;0.50;;;11.00;55.90;;;;;;20941;6741;117277;-77
2024/01/24 03:11:36;;;;;;;1.37;1.08;;;10.80;56.40;;;;;;20797;6722;333983;-77
2024/01/24 03:14:12;;;;;;;1.47;0.57;;;10.90;56.30;;;;;;20917;6716;118154;-77
2024/01/24 03:16:47;;;;;;;1.47;0.70;;;10.80;56.50;;;;;;20754;6723;328797;-76
2024/01/24 03:19:23;;;;;;;2.47;0.83;;;10.90;56.30;;;;;;20993;6718;116990;-77
2024/01/24 03:21:58;;;;;;;0.73;0.70;;;10.80;56.40;;;;;;20993;6722;117484;-77
2024/01/24 03:24:34;;;;;;;1.55;0.90;;;10.70;57.10;;;;;;20560;6738;307928;-77
2024/01/24 03:27:11;;;;;;;2.10;0.90;;;10.70;56.90;;;;;;20773;6722;279748;-77
2024/01/24 03:29:46;;;;;;;1.60;0.57;;;10.90;56.60;;;;;;21011;6718;119377;-76
2024/01/24 03:32:21;;;;;;;1.98;0.70;;;10.90;56.60;;;;;;20783;6718;274971;-79
2024/01/24 03:34:57;;;;;;;0.80;0.60;;;11.00;56.50;;;;;;20589;6718;306786;-79
2024/01/24 03:37:33;;;;;;;1.90;0.90;;;11.20;56.10;;;;;;20788;6722;305856;-78
2024/01/24 03:40:10;;;;;;;1.43;0.70;;;11.40;55.70;;;;;;20936;6740;116872;-78
2024/01/24 03:42:45;;;;;;;2.67;1.07;;;11.20;56.00;;;;;;20793;6707;305192;-78
2024/01/24 03:45:21;;;;;;;1.50;0.83;;;11.30;56.10;;;;;;20926;6743;117051;-78
2024/01/24 03:47:56;;;;;;;0.87;0.87;;;11.10;56.40;;;;;;20904;6748;116989;-79
2024/01/24 03:50:32;;;;;;;2.15;0.85;;;10.80;57.00;;;;;;20706;6736;278750;-78
2024/01/24 03:53:08;;;;;;;1.37;0.80;;;10.80;57.10;;;;;;20948;6721;116894;-78
2024/01/24 03:55:44;;;;;;;1.62;0.85;;;10.90;57.50;;;;;;20791;6718;304738;-79
2024/01/24 03:58:20;;;;;;;0.90;0.60;;;10.90;57.40;;;;;;20873;6737;144882;-79
2024/01/24 04:00:58;;;;;;;1.00;0.90;;;10.90;57.60;;;;;;20722;6736;304780;-78
2024/01/24 04:03:31;;;;;;;1.30;0.90;;;11.00;57.50;;;;;;20649;6732;306717;-78
2024/01/24 04:06:06;;;;;;;1.10;0.90;;;11.20;57.10;;;;;;20676;6737;307912;-79
2024/01/24 04:08:45;;;;;;;1.37;0.82;;;11.50;56.60;;;;;;20660;6751;307239;-79
2024/01/24 04:11:21;;;;;;;2.03;0.90;;;11.70;56.20;;;;;;20830;6753;119537;-78
2024/01/24 04:13:57;;;;;;;1.70;0.90;;;11.60;56.60;;;;;;20811;6738;118118;-81
2024/01/24 04:16:32;;;;;;;2.57;0.70;;;11.30;57.90;;;;;;20910;6736;120063;-79
2024/01/24 04:19:08;;;;;;;0.97;0.60;;;11.00;57.90;;;;;;20956;6736;116890;-76
2024/01/24 04:21:44;;;;;;;0.83;0.80;;;10.90;58.60;;;;;;20856;6753;117014;-74
2024/01/24 04:24:19;;;;;;;2.17;1.10;;;10.70;59.00;;;;;;20545;6741;308705;-75
2024/01/24 04:26:55;;;;;;;3.70;0.90;;;10.90;59.00;;;;;;20834;6759;117595;-74
2024/01/24 04:29:30;;;;;;;1.77;0.73;;;11.00;59.00;;;;;;20870;6750;116992;-74
2024/01/24 04:32:06;;;;;;;2.80;0.70;;;10.90;59.40;;;;;;20928;6736;116963;-76
2024/01/24 04:34:41;;;;;;;2.90;1.08;;;10.80;59.80;;;;;;20596;6721;307551;-76
2024/01/24 04:37:17;;;;;;;1.27;0.97;;;11.00;59.50;;;;;;20941;6735;116773;-76
2024/01/24 04:39:53;;;;;;;1.27;1.00;;;11.00;59.40;;;;;;20934;6739;116882;-76
2024/01/24 04:42:28;;;;;;;0.83;0.83;;;11.00;59.80;;;;;;21005;6710;117787;-75
2024/01/24 04:45:04;;;;;;;1.30;0.73;;;10.90;60.20;;;;;;20757;6794;117645;-75
2024/01/24 04:47:42;;;;;;;3.73;1.40;;;10.80;60.50;;;;;;20652;6759;310193;-76
2024/01/24 04:50:16;;;;;;;3.50;1.42;;;11.00;60.20;;;;;;20685;6751;306477;-75
2024/01/24 04:52:52;;;;;;;2.10;1.30;;;11.50;59.90;;;;;;20878;6743;116914;-75
2024/01/24 04:55:27;;;;;;;2.73;1.47;;;11.50;59.10;;;;;;20650;6722;304966;-76
2024/01/24 04:58:04;;;;;;;1.73;1.20;;;11.70;58.40;;;;;;20666;6735;277411;-76
2024/01/24 05:00:39;;;;;;;2.60;1.30;;;11.90;57.70;;;;;;20722;6732;335852;-77
2024/01/24 05:03:14;;;;;;;1.90;1.07;;;12.20;57.20;;;;;;20896;6732;117165;-77
2024/01/24 05:05:50;;;;;;;2.12;1.40;;;12.10;57.50;;;;;;20792;6717;309450;-76
2024/01/24 05:08:25;;;;;;;2.80;1.17;;;12.10;57.40;;;;;;20977;6721;122570;-77
2024/01/24 05:11:02;;;;;;;2.05;1.30;;;12.00;57.80;;;;;;20740;6732;304891;-77
2024/01/24 05:13:37;;;;;;;1.70;1.10;;;12.00;57.80;;;;;;20657;6736;280544;-77
2024/01/24 05:16:16;;;;;;;1.77;1.10;;;12.20;57.80;;;;;;20906;6745;117081;-77
2024/01/24 05:18:49;;;;;;;2.30;1.20;;;12.20;57.80;;;;;;20915;6738;117482;-77
2024/01/24 05:21:25;;;;;;;3.30;1.40;;;12.00;58.70;;;;;;20753;6723;335102;-77
2024/01/24 05:24:01;;;;;;;2.07;1.30;;;12.40;58.10;;;;;;20649;6737;305915;-77
2024/01/24 05:26:37;;;;;;;2.57;0.80;;;12.40;58.00;;;;;;21001;6712;119914;-77
2024/01/24 05:29:12;;;;;;;2.50;1.00;;;12.40;58.10;;;;;;20938;6739;119506;-77
2024/01/24 05:31:48;;;;;;;2.75;1.35;;;12.10;58.60;;;;;;20765;6721;334584;-77
2024/01/24 05:34:23;;;;;;;2.37;1.20;;;12.20;58.80;;;;;;20788;6736;120468;-78
2024/01/24 05:37:02;;;;;;;1.85;1.15;;;12.20;59.00;;;;;;20781;6721;305751;-77
2024/01/24 05:39:35;;;;;;;2.20;1.10;;;12.30;58.70;;;;;;20997;6723;119508;-75
2024/01/24 05:42:11;;;;;;;2.47;1.43;;;12.10;59.30;;;;;;20994;6724;116930;-76
2024/01/24 05:44:52;;;;;;;1.23;0.73;;;12.10;59.30;;;;;;20880;6706;117217;-75
2024/01/24 05:47:23;;;;;;;1.52;1.05;;;12.10;59.70;;;;;;20724;6740;306030;-75
2024/01/24 05:49:58;;;;;;;1.13;0.90;;;12.10;59.70;;;;;;20913;6747;117038;-77
2024/01/24 05:52:34;;;;;;;1.43;0.90;;;12.10;59.70;;;;;;20927;6735;119451;-77
2024/01/24 05:55:10;;;;;;;2.50;1.40;;;12.00;60.30;;;;;;20546;6794;293618;-77
2024/01/24 05:57:46;;;;;;;1.33;1.00;;;12.20;60.20;;;;;;20976;6720;117308;-76
2024/01/24 06:00:21;;;;;;;1.63;0.90;;;12.20;60.20;;;;;;20946;6720;117064;-78
2024/01/24 06:02:59;;;;;;;1.83;1.00;;;12.10;60.70;;;;;;20733;6720;334188;-77
2024/01/24 06:05:32;;;;;;;1.93;1.20;;;12.40;60.20;;;;;;20649;6755;306229;-77
2024/01/24 06:08:08;;;;;;;1.30;1.00;;;13.00;59.00;;;;;;20758;6742;278560;-76
2024/01/24 06:10:44;;;;;;;2.17;1.23;;;13.00;58.90;;;;;;20763;6718;303418;-76
2024/01/24 06:13:20;;;;;;;1.83;1.10;;;13.10;58.10;;;;;;20840;6751;119969;-77
2024/01/24 06:15:56;;;;;;;1.13;0.87;;;13.10;58.10;;;;;;20771;6721;277331;-79
2024/01/24 06:18:31;;;;;;;1.60;1.00;;;13.10;58.20;;;;;;20705;6754;281722;-77
2024/01/24 06:21:07;;;;;;;2.22;1.20;;;13.40;57.90;;;;;;20703;6738;275878;-76
2024/01/24 06:23:42;;;;;;;2.03;0.77;;;13.50;57.20;;;;;;20877;6732;117045;-76
2024/01/24 06:26:18;;;;;;;1.37;1.00;;;13.40;57.80;;;;;;20886;6751;118689;-75
2024/01/24 06:28:54;;;;;;;2.55;1.33;;;13.10;58.40;;;;;;20743;6723;310215;-75
2024/01/24 06:31:30;;;;;;;1.90;1.07;;;13.10;58.40;;;;;;20689;6739;306517;-76
2024/01/24 06:34:05;;;;;;;1.90;1.10;;;13.30;58.00;;;;;;20656;6727;278556;-76
2024/01/24 06:36:40;;;;;;;1.87;1.27;;;13.50;57.50;;;;;;20732;6729;334463;-76
2024/01/24 06:39:16;;;;;;;3.83;1.20;;;13.70;57.10;;;;;;20931;6742;117022;-76
2024/01/24 06:41:56;;;;;;;1.40;1.10;;;13.50;57.50;;;;;;20721;6736;306991;-75
2024/01/24 06:44:27;;;;;;;1.50;1.00;;;13.50;57.60;;;;;;20743;6753;119935;-76
2024/01/24 06:47:03;;;;;;;2.43;0.90;;;13.30;58.00;;;;;;20933;6739;120135;-76
2024/01/24 06:49:38;;;;;;;1.83;1.25;;;13.00;58.70;;;;;;20732;6751;302762;-75
2024/01/24 06:52:14;;;;;;;1.03;0.90;;;13.10;58.70;;;;;;20939;6738;117002;-75
2024/01/24 06:54:49;;;;;;;1.13;0.80;;;13.10;59.10;;;;;;20778;6734;117251;-75
2024/01/24 06:57:25;;;;;;;2.15;1.02;;;12.90;59.50;;;;;;20725;6739;276546;-75
2024/01/24 07:00:01;;;;;;;2.00;1.10;;;13.00;59.20;;;;;;20745;6734;307476;-75
2024/01/24 07:02:40;;;;;;;1.80;1.40;;;13.50;57.60;;;;;;20724;6732;307204;-75
2024/01/24 07:05:13;;;;;;;2.80;0.93;;;13.50;57.60;;;;;;20996;6717;117051;-75
2024/01/24 07:07:49;;;;;;;1.77;1.00;;;13.40;57.90;;;;;;20738;6734;337085;-75
2024/01/24 07:10:24;;;;;;;3.07;1.10;;;13.40;57.90;;;;;;20977;6735;119716;-75
2024/01/24 07:13:00;;;;;;;2.10;1.00;;;13.30;59.00;;;;;;20789;6706;277792;-75
2024/01/24 07:15:36;;;;;;;0.63;0.63;;;13.40;58.00;;;;;;21022;6706;120245;-75
2024/01/24 07:18:11;;;;;;;1.62;0.95;;;13.30;58.50;;;;;;20820;6706;334758;-75
2024/01/24 07:20:47;;;;;;;0.87;0.67;;;13.40;58.20;;;;;;21019;6706;118327;-74
2024/01/24 07:23:24;;;;;;;0.90;0.80;;;13.40;58.50;;;;;;20744;6706;307804;-75
2024/01/24 07:25:59;;;;;;;1.60;1.00;;;13.40;58.10;;;;;;21030;6706;117395;-75
2024/01/24 07:28:35;;;;;;;0.77;0.77;;;13.40;58.40;;;;;;21011;6706;117474;-75
2024/01/24 07:31:11;;;;;;;1.60;0.87;;;13.20;59.10;;;;;;21033;6706;117131;-77
2024/01/24 07:33:46;;;;;;;0.75;0.68;;;13.00;59.60;;;;;;20732;6706;336627;-77
2024/01/24 07:36:22;;;;;;;1.23;0.80;;;13.10;59.20;;;;;;20968;6726;117533;-77
2024/01/24 07:38:57;;;;;;;0.77;0.67;;;13.10;59.30;;;;;;20980;6726;118174;-77
2024/01/24 07:41:33;;;;;;;1.83;1.00;;;12.90;59.70;;;;;;20773;6726;319364;-77
2024/01/24 07:44:09;;;;;;;1.90;0.80;;;13.00;59.20;;;;;;20627;6726;278953;-77
2024/01/24 07:46:44;;;;;;;1.07;0.70;;;13.40;58.60;;;;;;20751;6726;275829;-77
2024/01/24 07:49:23;;;;;;;1.47;0.77;;;13.60;57.70;;;;;;20766;6726;335254;-77
2024/01/24 07:51:55;;;;;;;0.70;0.70;;;13.80;57.10;;;;;;20764;6726;304028;-77
2024/01/24 07:54:32;;;;;;;0.77;0.67;;;13.80;57.10;;;;;;20866;6726;117981;-77
2024/01/24 07:57:07;;;;;;;0.40;0.40;;;13.80;57.10;;;;;;21019;6711;122222;-77
2024/01/24 07:59:43;;;;;;;0.57;0.57;;;13.50;57.90;;;;;;21028;6711;116711;-77
2024/01/24 08:02:18;;;;;;;0.73;0.73;;;13.30;58.70;;;;;;20805;6711;334131;-77
2024/01/24 08:04:54;;;;;;;1.80;0.97;;;13.40;58.50;;;;;;20805;6711;117611;-77
2024/01/24 08:07:33;;;;;;;1.67;1.23;;;13.20;59.20;;;;;;21010;6711;115953;-77
2024/01/24 08:10:10;;;;;;;1.27;1.00;;;13.20;59.20;;;;;;21002;6711;116798;-76
2024/01/24 08:12:44;;;;;;;1.57;0.83;;;12.90;60.20;;;;;;21003;6710;120154;-76
2024/01/24 08:15:20;;;;;;;0.80;0.80;;;12.80;60.10;;;;;;21021;6710;116717;-76
2024/01/24 08:17:55;;;;;;;0.40;0.40;;;12.70;60.50;;;;;;21022;6711;116943;-76
2024/01/24 08:20:30;;;;;;;0.47;0.47;;;12.60;60.80;;;;;;21014;6711;117480;-77
2024/01/24 08:23:06;;;;;;;2.30;1.70;;;12.60;61.40;;;;;;20973;6711;117036;-77
2024/01/24 08:25:42;;;;;;;1.30;1.20;;;12.50;61.50;;;;;;20810;6711;304319;-77
2024/01/24 08:28:17;;;;;;;1.50;1.10;;;12.80;60.60;;;;;;20808;6711;277335;-77
2024/01/24 08:30:53;;;;;;;2.50;2.30;;;13.20;59.40;;;;;;20789;6711;304626;-77
2024/01/24 08:33:31;;;;;;;1.08;1.08;;;13.60;58.10;;;;;;20799;6711;292951;-77
2024/01/24 08:36:04;;;;;;;1.00;1.00;;;13.90;57.10;;;;;;21023;6711;116022;-77
2024/01/24 08:38:40;;;;;;;0.90;0.77;;;13.80;57.60;;;;;;20995;6711;116864;-76
2024/01/24 08:41:15;;;;;;;0.70;0.70;;;13.60;58.30;;;;;;21020;6711;119542;-77
2024/01/24 08:43:52;;;;;;;1.17;0.88;;;13.40;59.00;;;;;;20709;6719;307406;-77
2024/01/24 08:46:26;;;;;;;1.77;1.63;;;13.50;58.20;;;;;;20918;6735;117881;-77
2024/01/24 08:49:02;;;;;;;2.77;1.07;;;13.60;58.60;;;;;;20944;6736;117182;-77
2024/01/24 08:51:37;;;;;;;1.70;1.60;;;13.40;59.00;;;;;;20786;6721;314265;-77
2024/01/24 08:54:13;;;;;;;1.40;1.30;;;13.60;58.30;;;;;;20611;6738;310903;-77
2024/01/24 08:56:51;;;;;;;1.33;1.33;;;13.90;58.50;;;;;;20920;6739;120814;-77
2024/01/24 08:59:26;;;;;;;1.00;1.00;;;13.90;57.80;;;;;;20933;6738;117499;-77
2024/01/24 09:02:04;;;;;;;1.10;1.03;;;13.70;58.30;;;;;;20935;6741;118224;-77
2024/01/24 09:04:38;;;;;;;1.65;1.55;;;13.50;58.80;;;;;;20557;6740;307836;-77
2024/01/24 09:07:19;;;;;;;0.70;0.70;;;13.60;58.10;;;;;;20752;6733;276412;-77
2024/01/24 09:09:52;;;;;;;1.60;1.50;;;13.90;57.20;;;;;;20788;6718;307152;-77
2024/01/24 09:12:28;;;;;;;0.77;0.77;;;14.50;56.20;;;;;;20781;6718;334268;-77
2024/01/24 09:14:57;;;;;;;0.70;0.70;;;14.50;56.20;;;;;;20787;6717;119540;-77
2024/01/24 09:17:22;;;;;;;0.60;0.60;;;14.40;56.60;;;;;;20785;6846;119313;-77
2024/01/24 09:19:48;;;;;;;0.60;0.60;;;14.10;57.10;;;;;;20562;6846;277157;-77
2024/01/24 09:22:13;;;;;;;0.57;0.57;;;14.20;56.80;;;;;;20577;6844;306621;-77
2024/01/24 09:24:39;;;;;;;1.40;0.77;;;14.40;56.30;;;;;;20560;6845;278684;-77
2024/01/24 09:27:06;;;;;;;1.20;1.00;;;14.60;55.60;;;;;;20557;6845;306834;-78
2024/01/24 09:29:32;;;;;;;2.03;1.37;;;14.80;55.40;;;;;;20780;6845;117002;-77
2024/01/24 09:31:57;;;;;;;1.57;1.27;;;14.60;55.80;;;;;;20771;6845;117569;-77
2024/01/24 09:34:26;;;;;;;1.40;1.30;;;14.40;56.50;;;;;;20546;6845;291693;-78
2024/01/24 09:36:48;;;;;;;1.13;1.13;;;14.30;56.00;;;;;;20753;6845;119862;-77
2024/01/24 09:39:14;;;;;;;0.73;0.73;;;14.30;56.60;;;;;;20563;6845;308164;-77
2024/01/24 09:41:40;;;;;;;1.17;1.17;;;14.30;56.20;;;;;;20569;6846;307106;-77
2024/01/24 09:44:05;;;;;;;0.60;0.60;;;14.50;55.80;;;;;;20560;6846;279636;-74
2024/01/24 09:46:30;;;;;;;2.10;2.00;;;14.70;55.40;;;;;;20752;6846;117267;-75
2024/01/24 09:48:57;;;;;;;2.30;2.20;;;14.60;55.80;;;;;;20546;6846;306636;-75
2024/01/24 09:51:22;;;;;;;3.73;3.43;;;14.60;55.60;;;;;;20776;6846;119254;-75
2024/01/24 09:53:49;;;;;;;3.47;3.17;;;14.30;57.60;;;;;;20774;6846;117009;-80
2024/01/24 09:56:15;;;;;;;6.78;6.18;;;14.30;56.70;;;;;;20561;6846;316928;-80
2024/01/24 09:58:40;;;;;;;5.97;5.37;;;14.30;56.70;;;;;;20746;6846;117824;-78
2024/01/24 10:01:07;;;;;;;10.37;7.90;;;14.10;57.50;;;;;;20777;6846;117114;-77
2024/01/24 10:03:33;;;;;;;9.02;8.00;;;14.20;57.40;;;;;;20544;6846;309140;-76
2024/01/24 10:05:59;;;;;;;1.27;1.27;;;14.20;57.30;;;;;;20778;6846;117258;-77
2024/01/24 10:08:24;;;;;;;1.83;1.62;;;14.20;57.70;;;;;;20552;6846;336642;-77
2024/01/24 10:10:52;;;;;;;2.20;2.10;;;14.30;57.70;;;;;;20789;6846;117343;-78
2024/01/24 10:13:19;;;;;;;2.33;2.23;;;14.40;57.40;;;;;;20561;6846;309047;-82
2024/01/24 10:15:46;;;;;;;1.13;1.13;;;14.40;57.40;;;;;;20783;6846;119214;-79
2024/01/24 10:18:13;;;;;;;1.10;1.10;;;14.40;57.70;;;;;;20786;6846;117343;-77
2024/01/24 10:20:39;;;;;;;0.90;0.90;;;14.20;58.20;;;;;;20756;6846;120775;-77
2024/01/24 10:23:04;;;;;;;1.47;1.30;;;14.00;58.80;;;;;;20547;6846;336154;-77
2024/01/24 10:25:30;;;;;;;2.03;1.47;;;14.10;58.50;;;;;;20562;6846;277121;-78
2024/01/24 10:27:55;;;;;;;1.10;1.10;;;14.40;58.20;;;;;;20566;6846;277673;-77
2024/01/24 10:30:23;;;;;;;0.80;0.80;;;14.70;57.40;;;;;;20761;6846;117593;-78
2024/01/24 10:32:47;;;;;;;0.90;0.90;;;14.50;58.40;;;;;;20772;6844;119766;-77
2024/01/24 10:35:13;;;;;;;0.80;0.80;;;14.50;58.40;;;;;;20566;6845;277667;-77
2024/01/24 10:37:38;;;;;;;0.60;0.60;;;14.60;57.70;;;;;;20526;6862;337227;-77
2024/01/24 10:40:05;;;;;;;0.73;0.73;;;14.90;57.10;;;;;;20509;6862;312033;-77
2024/01/24 10:42:30;;;;;;;2.00;1.90;;;15.10;56.60;;;;;;20543;6845;306576;-77
2024/01/24 10:44:56;;;;;;;0.90;0.60;;;15.30;55.90;;;;;;20554;6845;277731;-75
2024/01/24 10:47:22;;;;;;;2.07;1.20;;;15.40;55.60;;;;;;20561;6845;335727;-75
2024/01/24 10:49:48;;;;;;;0.40;0.40;;;15.50;55.50;;;;;;20770;6845;117056;-75
2024/01/24 10:52:15;;;;;;;0.73;0.73;;;15.30;56.00;;;;;;20777;6845;117589;-75
2024/01/24 10:54:40;;;;;;;1.30;1.20;;;15.00;56.90;;;;;;20759;6846;120390;-76
2024/01/24 10:57:06;;;;;;;1.73;1.10;;;14.70;57.70;;;;;;20772;6846;117376;-76
2024/01/24 10:59:30;;;;;;;1.37;1.27;;;14.50;58.40;;;;;;20765;6846;118182;-76
2024/01/24 11:01:56;;;;;;;0.70;0.70;;;14.30;58.70;;;;;;20565;6846;279936;-76
2024/01/24 11:04:23;;;;;;;1.20;1.10;;;14.40;58.30;;;;;;20540;6846;277182;-77
2024/01/24 11:06:49;;;;;;;2.60;2.40;;;14.60;58.00;;;;;;20763;6846;117305;-76
2024/01/24 11:09:25;;;;;;;4.40;4.00;;;14.60;58.00;;;;;;20504;6846;309147;-76
2024/01/24 11:11:50;;;;;;;3.00;2.80;;;14.70;58.10;;;;;;20755;6846;117062;-77
2024/01/24 11:14:29;;;;;;;1.80;1.70;;;14.60;58.20;;;;;;20547;6846;307679;-77
2024/01/24 11:16:54;;;;;;;1.10;1.02;;;14.60;58.50;;;;;;20525;6846;315504;-76
2024/01/24 11:19:23;;;;;;;0.77;0.73;;;14.80;57.70;;;;;;20778;6846;121221;-77
2024/01/24 11:21:48;;;;;;;0.75;0.75;;;14.70;58.10;;;;;;20548;6846;322622;-77
2024/01/24 11:24:40;;;;;;;0.40;0.40;;;14.70;58.40;;;;;;20769;6846;119342;-76
2024/01/24 11:27:35;;;;;;;1.05;1.00;;;14.60;58.70;;;;;;20557;6846;336117;-77
2024/01/24 11:30:17;;;;;;;0.50;0.50;;;14.60;58.80;;;;;;20767;6846;117761;-77
2024/01/24 11:32:54;;;;;;;0.30;0.30;;;14.60;58.80;;;;;;20731;6846;117436;-77
2024/01/24 11:35:32;;;;;;;0.90;0.40;;;14.50;59.50;;;;;;20766;6846;119701;-78
2024/01/24 11:38:01;;;;;;;0.45;0.45;;;14.30;60.00;;;;;;20562;6846;301506;-75
2024/01/24 11:40:26;;;;;;;0.40;0.20;;;14.50;59.70;;;;;;20741;6846;117588;-77
2024/01/24 11:42:55;;;;;;;0.20;0.20;;;14.50;59.60;;;;;;20560;6846;306363;-76
2024/01/24 11:45:22;;;;;;;0.30;0.30;;;14.60;59.30;;;;;;20557;6844;278131;-75
2024/01/24 11:47:46;;;;;;;0.13;0.13;;;14.90;58.70;;;;;;20773;6845;117116;-75
2024/01/24 11:50:12;;;;;;;0.20;0.20;;;14.70;59.10;;;;;;20769;6845;117096;-75
2024/01/24 11:52:38;;;;;;;0.10;0.10;;;14.70;59.10;;;;;;20751;6845;118039;-75
2024/01/24 11:55:04;;;;;;;0.20;0.20;;;14.50;59.70;;;;;;20555;6845;307492;-76
2024/01/24 11:57:30;;;;;;;0.20;0.20;;;14.50;60.50;;;;;;20769;6845;117117;-76
2024/01/24 11:59:55;;;;;;;0.20;0.20;;;14.40;60.50;;;;;;20771;6845;117813;-77
2024/01/24 12:02:21;;;;;;;0.20;0.20;;;14.20;61.00;;;;;;20537;6845;309006;-78
2024/01/24 12:04:50;;;;;;;0.50;0.30;;;14.30;61.70;;;;;;20771;6846;117784;-77
2024/01/24 12:07:16;;;;;;;1.77;1.67;;;14.30;62.30;;;;;;20557;6846;277444;-77
2024/01/24 12:09:42;;;;;;;0.20;0.20;;;14.30;62.30;;;;;;20772;6846;119765;-77
2024/01/24 12:12:07;;;;;;;0.30;0.30;;;14.30;62.80;;;;;;20565;6846;307121;-77
2024/01/24 12:14:34;;;;;;;0.37;0.37;;;14.60;62.00;;;;;;20531;6846;307115;-77
2024/01/24 12:17:00;;;;;;;2.10;0.30;;;14.60;61.70;;;;;;20773;6846;117294;-78
2024/01/24 12:19:25;;;;;;;0.10;0.10;;;14.60;61.70;;;;;;20707;6867;117733;-79
2024/01/24 12:21:52;;;;;;;0.13;0.13;;;14.30;62.00;;;;;;20778;6843;120139;-80
2024/01/24 12:24:17;;;;;;;0.30;0.20;;;14.00;62.60;;;;;;20771;6846;117201;-77
2024/01/24 12:26:43;;;;;;;0.37;0.30;;;13.80;63.30;;;;;;20529;6846;306643;-77
2024/01/24 12:29:08;;;;;;;1.40;0.73;;;13.90;64.00;;;;;;20770;6846;117045;-79
2024/01/24 12:31:34;;;;;;;0.40;0.40;;;14.00;64.00;;;;;;20562;6846;287951;-77
2024/01/24 12:34:00;;;;;;;2.77;2.67;;;14.10;64.10;;;;;;20768;6846;117228;-77
2024/01/24 12:36:25;;;;;;;0.50;0.50;;;14.10;63.90;;;;;;20542;6846;277736;-77
2024/01/24 12:38:54;;;;;;;0.70;0.70;;;14.30;63.80;;;;;;20556;6846;308511;-76
2024/01/24 12:41:21;;;;;;;0.93;0.93;;;14.80;62.80;;;;;;20555;6846;277086;-77
2024/01/24 12:43:46;;;;;;;0.90;0.90;;;14.70;62.70;;;;;;20811;6846;116328;-77
2024/01/24 12:46:12;;;;;;;12.60;11.60;;;14.70;62.70;;;;;;20552;6846;313045;-77
2024/01/24 12:48:38;;;;;;;14.93;13.33;;;14.70;62.60;;;;;;20756;6846;122899;-77
2024/01/24 12:51:04;;;;;;;5.05;4.60;;;14.60;62.90;;;;;;20560;6846;309575;-77
2024/01/24 12:53:29;;;;;;;7.45;6.72;;;14.60;63.10;;;;;;20733;6846;117203;-76
2024/01/24 12:55:55;;;;;;;5.23;4.87;;;14.50;63.10;;;;;;20523;6844;308747;-76
2024/01/24 12:58:21;;;;;;;5.82;5.32;;;14.40;63.80;;;;;;20748;6845;119263;-78
2024/01/24 13:00:48;;;;;;;6.75;6.25;;;14.40;64.80;;;;;;20559;6845;337110;-77
2024/01/24 13:03:13;;;;;;;3.37;3.07;;;14.30;64.70;;;;;;20771;6845;117038;-78
2024/01/24 13:05:39;;;;;;;1.80;1.70;;;14.30;64.60;;;;;;20562;6845;307517;-77